Time;durP1;ratioP1;P1;durP2;ratioP2;P2;SDS_P1;SDS_P2;PMS_P1;PMS_P2;Temp;Humidity;BMP_temperature;BMP_pressure;BME280_temperature;BME280_humidity;BME280_pressure;Samples;Min_cycle;Max_cycle;Signal;HPM_P1;HPM_P2
2021/06/23 00:00:33;;;;;;;36.00;10.05;;;716.80;1612.80;;;;;;5093798;28;20020;-63
2021/06/23 00:02:58;;;;;;;35.25;9.75;;;716.80;1612.80;;;;;;5093613;28;20091;-62
2021/06/23 00:05:25;;;;;;;32.15;9.40;;;716.80;1612.80;;;;;;5093633;28;20056;-63
2021/06/23 00:07:52;;;;;;;31.00;9.52;;;716.80;1638.40;;;;;;5093463;28;20107;-63
2021/06/23 00:10:19;;;;;;;32.17;9.40;;;716.80;1638.40;;;;;;5093436;28;20594;-63
2021/06/23 00:12:46;;;;;;;30.67;8.57;;;692.10;1612.80;;;;;;5093820;28;20043;-63
2021/06/23 00:15:14;;;;;;;34.00;10.75;;;692.10;1612.80;;;;;;5093670;28;20024;-62
2021/06/23 00:17:40;;;;;;;34.78;9.90;;;692.10;1612.80;;;;;;5093986;28;20362;-63
2021/06/23 00:20:07;;;;;;;31.48;9.27;;;692.10;1612.80;;;;;;5093617;28;20488;-63
2021/06/23 00:22:33;;;;;;;45.00;10.35;;;692.10;1612.80;;;;;;5093278;28;20051;-62
2021/06/23 00:24:59;;;;;;;41.85;9.75;;;692.00;1612.80;;;;;;5093084;28;20039;-63
2021/06/23 00:27:25;;;;;;;35.65;9.75;;;692.00;1612.80;;;;;;5093620;28;20016;-63
2021/06/23 00:29:51;;;;;;;38.15;9.95;;;692.00;1612.80;;;;;;5093613;28;20469;-63
2021/06/23 00:32:20;;;;;;;36.33;9.93;;;692.00;1612.80;;;;;;5093651;28;20099;-64
2021/06/23 00:34:46;;;;;;;46.90;10.45;;;691.90;1638.40;;;;;;5093456;28;20104;-62
2021/06/23 00:37:12;;;;;;;37.97;9.43;;;691.90;1664.00;;;;;;5093565;28;20436;-62
2021/06/23 00:39:38;;;;;;;39.70;9.95;;;691.90;1664.00;;;;;;5093501;28;20032;-63
2021/06/23 00:42:07;;;;;;;44.78;10.95;;;691.90;1664.00;;;;;;5093678;28;20031;-63
2021/06/23 00:44:33;;;;;;;40.88;9.95;;;691.90;1638.40;;;;;;5093285;28;20054;-63
2021/06/23 00:46:59;;;;;;;41.95;11.88;;;691.90;1638.40;;;;;;5092980;28;20063;-63
2021/06/23 00:49:31;;;;;;;30.08;9.25;;;691.90;1638.40;;;;;;5093347;28;20438;-63
2021/06/23 00:52:01;;;;;;;41.78;10.32;;;691.90;1638.40;;;;;;5097036;28;20024;-63
2021/06/23 00:54:27;;;;;;;30.38;9.20;;;691.90;1664.00;;;;;;5096882;28;20028;-63
2021/06/23 00:56:56;;;;;;;35.65;9.13;;;691.90;1664.00;;;;;;5096967;28;20111;-62
2021/06/23 00:59:22;;;;;;;39.85;10.40;;;691.90;1638.40;;;;;;5097249;28;20027;-62
2021/06/23 01:01:48;;;;;;;33.28;10.20;;;691.90;1664.00;;;;;;5097323;28;20028;-62
2021/06/23 01:04:14;;;;;;;35.70;9.18;;;691.80;1664.00;;;;;;5096960;28;20089;-63
2021/06/23 01:06:40;;;;;;;34.67;10.50;;;691.80;1664.00;;;;;;5096861;28;20032;-63
2021/06/23 01:09:06;;;;;;;37.80;9.77;;;691.80;1664.00;;;;;;5096916;28;20028;-62
2021/06/23 01:11:50;;;;;;;41.63;10.18;;;691.80;1638.40;;;;;;5096647;28;20374;-64
2021/06/23 01:14:16;;;;;;;36.10;9.27;;;691.80;1638.40;;;;;;5096834;28;20102;-62
2021/06/23 01:16:43;;;;;;;33.13;8.48;;;691.80;1638.40;;;;;;5097049;28;20031;-63
2021/06/23 01:19:10;;;;;;;49.17;10.35;;;691.80;1638.40;;;;;;5095375;28;20028;-62
2021/06/23 01:21:36;;;;;;;46.95;10.43;;;691.80;1638.40;;;;;;5096478;28;20056;-62
2021/06/23 01:24:02;;;;;;;43.28;11.00;;;691.80;1638.40;;;;;;5096377;28;20024;-63
2021/06/23 01:26:28;;;;;;;42.15;11.80;;;691.80;1638.40;;;;;;5096435;28;20020;-62
2021/06/23 01:28:54;;;;;;;45.35;11.80;;;691.80;1638.40;;;;;;5097051;28;20016;-63
2021/06/23 01:31:21;;;;;;;39.95;10.07;;;691.80;1612.80;;;;;;5096402;28;20515;-62
2021/06/23 01:33:48;;;;;;;39.22;9.93;;;691.80;1612.80;;;;;;5096331;28;20410;-63
2021/06/23 01:36:14;;;;;;;64.78;10.88;;;691.80;1587.20;;;;;;5096385;28;20035;-62
2021/06/23 01:38:40;;;;;;;61.65;12.20;;;691.70;1612.80;;;;;;5095988;28;20024;-63
2021/06/23 01:41:08;;;;;;;73.22;12.32;;;691.70;1612.80;;;;;;5096327;28;20035;-63
2021/06/23 01:43:34;;;;;;;51.58;12.60;;;691.60;1612.80;;;;;;5096173;28;20047;-62
2021/06/23 01:46:00;;;;;;;50.20;11.55;;;691.60;1638.40;;;;;;5095915;28;20035;-63
2021/06/23 01:48:26;;;;;;;47.50;11.07;;;691.50;1664.00;;;;;;5096023;28;20024;-62
2021/06/23 01:50:59;;;;;;;47.40;10.65;;;691.40;1689.60;;;;;;5096081;28;20024;-63
2021/06/23 01:53:26;;;;;;;51.90;10.45;;;691.40;1689.60;;;;;;5095863;28;20016;-62
2021/06/23 01:55:52;;;;;;;41.20;10.63;;;691.40;1689.60;;;;;;5095736;28;20477;-62
2021/06/23 01:58:20;;;;;;;42.38;10.07;;;691.30;1689.60;;;;;;5095999;28;20032;-62
2021/06/23 02:00:52;;;;;;;53.58;11.52;;;691.30;1689.60;;;;;;5095968;28;20016;-62
2021/06/23 02:03:39;;;;;;;37.67;9.55;;;691.30;1689.60;;;;;;5095098;28;20031;-63
2021/06/23 02:06:08;;;;;;;46.53;10.05;;;691.30;1689.60;;;;;;5093508;28;20047;-62
2021/06/23 02:09:02;;;;;;;49.58;10.57;;;691.30;1689.60;;;;;;5093619;28;20090;-62
2021/06/23 02:11:40;;;;;;;50.13;11.57;;;691.20;1689.60;;;;;;5093557;28;20097;-62
2021/06/23 02:14:30;;;;;;;41.72;10.63;;;691.20;1689.60;;;;;;5093581;28;20036;-62
2021/06/23 02:16:56;;;;;;;40.80;9.80;;;691.20;1689.60;;;;;;5093179;28;20061;-62
2021/06/23 02:19:22;;;;;;;40.90;10.07;;;666.50;1689.60;;;;;;5093423;28;20032;-64
2021/06/23 02:21:48;;;;;;;51.05;12.10;;;666.50;1689.60;;;;;;5093122;28;20071;-62
2021/06/23 02:24:15;;;;;;;49.50;11.55;;;666.40;1715.20;;;;;;5093147;28;20039;-62
2021/06/23 02:26:41;;;;;;;52.42;11.45;;;666.40;1715.20;;;;;;5093437;28;20021;-62
2021/06/23 02:29:07;;;;;;;47.80;11.13;;;666.40;1715.20;;;;;;5093564;28;20030;-63
2021/06/23 02:31:38;;;;;;;50.05;11.65;;;666.40;1715.20;;;;;;5093169;28;20024;-63
2021/06/23 02:34:10;;;;;;;43.15;11.70;;;666.40;1715.20;;;;;;5093108;28;20027;-62
2021/06/23 02:36:37;;;;;;;51.88;10.70;;;666.30;1715.20;;;;;;5092995;28;20509;-62
2021/06/23 02:39:05;;;;;;;55.60;11.50;;;666.30;1715.20;;;;;;5076056;28;20038;-63
2021/06/23 02:41:31;;;;;;;36.58;11.02;;;666.30;1715.20;;;;;;5092771;28;20439;-63
2021/06/23 02:43:57;;;;;;;43.55;9.77;;;666.30;1715.20;;;;;;5094667;28;20093;-63
2021/06/23 02:46:23;;;;;;;36.65;11.32;;;666.30;1715.20;;;;;;5094685;28;20474;-63
2021/06/23 02:48:51;;;;;;;43.08;10.73;;;666.30;1715.20;;;;;;5095007;28;20031;-63
2021/06/23 02:51:22;;;;;;;46.92;12.65;;;666.20;1715.20;;;;;;5094877;28;20028;-62
2021/06/23 02:53:49;;;;;;;38.47;11.70;;;666.10;1740.80;;;;;;5094780;28;20119;-62
2021/06/23 02:56:17;;;;;;;42.08;12.80;;;666.10;1740.80;;;;;;5094809;28;20030;-62
2021/06/23 02:58:44;;;;;;;43.75;10.60;;;666.10;1740.80;;;;;;5094614;28;20035;-63
2021/06/23 03:01:11;;;;;;;44.92;10.68;;;666.10;1740.80;;;;;;5094802;28;20024;-62
2021/06/23 03:03:41;;;;;;;60.42;11.30;;;666.10;1740.80;;;;;;5094766;28;20073;-62
2021/06/23 03:06:07;;;;;;;54.53;11.73;;;666.00;1766.40;;;;;;5094371;28;20047;-63
2021/06/23 03:08:34;;;;;;;50.05;12.38;;;666.00;1766.40;;;;;;5094608;28;20024;-62
2021/06/23 03:11:00;;;;;;;43.33;11.32;;;666.00;1766.40;;;;;;5094316;28;20027;-62
2021/06/23 03:13:25;;;;;;;52.28;10.70;;;666.00;1766.40;;;;;;5094358;28;20028;-62
2021/06/23 03:15:51;;;;;;;41.35;9.93;;;666.00;1766.40;;;;;;5094416;28;20031;-62
2021/06/23 03:18:17;;;;;;;52.90;11.68;;;666.00;1766.40;;;;;;5094426;28;20028;-63
2021/06/23 03:20:43;;;;;;;55.50;11.90;;;666.00;1740.80;;;;;;5094473;28;20020;-63
2021/06/23 03:23:09;;;;;;;47.08;11.63;;;666.00;1740.80;;;;;;5093867;28;20543;-62
2021/06/23 03:25:35;;;;;;;57.50;10.70;;;666.10;1740.80;;;;;;5093971;28;20032;-62
2021/06/23 03:28:02;;;;;;;38.97;10.00;;;666.00;1740.80;;;;;;5094396;28;20020;-62
2021/06/23 03:30:28;;;;;;;44.83;10.23;;;666.00;1740.80;;;;;;5094303;28;20024;-62
2021/06/23 03:32:55;;;;;;;48.72;11.45;;;666.00;1766.40;;;;;;5094291;28;20027;-62
2021/06/23 03:35:21;;;;;;;49.83;11.40;;;666.00;1766.40;;;;;;5094222;28;20070;-62
2021/06/23 03:37:48;;;;;;;48.90;10.73;;;666.00;1740.80;;;;;;5094175;28;20044;-62
2021/06/23 03:40:15;;;;;;;40.60;9.63;;;666.10;1740.80;;;;;;5093970;28;20048;-62
2021/06/23 03:42:41;;;;;;;41.13;9.93;;;666.10;1740.80;;;;;;5093827;28;20031;-63
2021/06/23 03:45:07;;;;;;;61.22;10.60;;;666.10;1740.80;;;;;;5094040;28;20127;-63
2021/06/23 03:47:33;;;;;;;44.42;9.82;;;666.10;1715.20;;;;;;5094044;28;20016;-63
2021/06/23 03:49:59;;;;;;;52.88;10.85;;;666.10;1715.20;;;;;;5094008;28;20035;-63
2021/06/23 03:52:25;;;;;;;60.17;10.00;;;666.10;1715.20;;;;;;5093858;28;20476;-62
2021/06/23 03:54:51;;;;;;;38.72;9.35;;;666.10;1689.60;;;;;;5093699;28;20071;-62
2021/06/23 03:57:16;;;;;;;40.53;9.27;;;666.20;1689.60;;;;;;5093958;28;20020;-62
2021/06/23 03:59:42;;;;;;;44.53;8.55;;;666.20;1664.00;;;;;;5093789;28;20486;-62
2021/06/23 04:02:08;;;;;;;42.42;9.10;;;666.30;1664.00;;;;;;5093528;28;20031;-62
2021/06/23 04:04:34;;;;;;;49.25;9.30;;;666.30;1664.00;;;;;;5093751;28;20035;-63
2021/06/23 04:07:00;;;;;;;43.35;9.18;;;666.30;1664.00;;;;;;5093782;28;20050;-62
2021/06/23 04:09:25;;;;;;;35.47;8.25;;;666.30;1638.40;;;;;;5093750;28;20042;-62
2021/06/23 04:11:51;;;;;;;34.60;7.57;;;666.30;1638.40;;;;;;5093895;28;20536;-62
2021/06/23 04:14:17;;;;;;;30.98;8.48;;;666.40;1612.80;;;;;;5093534;28;20027;-63
2021/06/23 04:16:42;;;;;;;33.65;7.78;;;666.40;1612.80;;;;;;5093749;28;20033;-63
2021/06/23 04:19:08;;;;;;;34.65;7.85;;;666.40;1587.20;;;;;;5093700;28;20047;-63
2021/06/23 04:21:34;;;;;;;30.10;6.90;;;666.50;1587.20;;;;;;5092260;28;20468;-63
2021/06/23 04:24:00;;;;;;;24.88;6.20;;;691.20;1587.20;;;;;;5093555;28;20073;-62
2021/06/23 04:26:25;;;;;;;32.30;6.97;;;691.20;1587.20;;;;;;5096563;28;20433;-62
2021/06/23 04:28:52;;;;;;;31.95;7.15;;;691.20;1561.60;;;;;;5097633;28;20028;-63
2021/06/23 04:31:18;;;;;;;30.60;7.00;;;691.20;1587.20;;;;;;5097623;28;20016;-62
2021/06/23 04:33:45;;;;;;;25.90;6.25;;;691.30;1561.60;;;;;;5097551;28;20024;-62
2021/06/23 04:36:10;;;;;;;29.40;6.28;;;691.30;1561.60;;;;;;5097631;28;20040;-63
2021/06/23 04:38:36;;;;;;;25.35;7.20;;;691.40;1561.60;;;;;;5097342;28;20024;-63
2021/06/23 04:41:03;;;;;;;29.17;6.20;;;691.50;1536.00;;;;;;5097428;28;20021;-63
2021/06/23 04:43:29;;;;;;;26.90;7.05;;;691.50;1536.00;;;;;;5097317;28;20099;-62
2021/06/23 04:45:55;;;;;;;31.95;6.60;;;691.70;1510.40;;;;;;5097184;28;20177;-62
2021/06/23 04:48:20;;;;;;;25.15;6.68;;;691.70;1510.40;;;;;;5097438;28;20020;-63
2021/06/23 04:50:46;;;;;;;24.85;6.95;;;691.90;1484.80;;;;;;5097129;28;20051;-62
2021/06/23 04:53:12;;;;;;;29.90;6.88;;;692.00;1459.20;;;;;;5097254;28;20103;-63
2021/06/23 04:55:38;;;;;;;22.63;6.35;;;692.10;1459.20;;;;;;5097077;28;20059;-63
2021/06/23 04:58:04;;;;;;;26.42;5.70;;;716.80;1459.20;;;;;;5097056;28;20024;-62
2021/06/23 05:00:29;;;;;;;26.58;6.22;;;717.00;1459.20;;;;;;5096805;28;20032;-62
2021/06/23 05:02:55;;;;;;;27.98;6.45;;;717.20;1433.60;;;;;;5096852;28;20031;-62
2021/06/23 05:05:21;;;;;;;19.48;6.18;;;717.30;1408.00;;;;;;5096953;28;20119;-62
2021/06/23 05:07:47;;;;;;;28.35;6.05;;;717.40;1382.40;;;;;;5097010;28;20020;-62
2021/06/23 05:10:13;;;;;;;21.73;5.10;;;717.60;1382.40;;;;;;5096313;28;20028;-63
2021/06/23 05:12:39;;;;;;;23.85;6.07;;;717.70;1356.80;;;;;;5096948;28;20035;-63
2021/06/23 05:15:05;;;;;;;27.52;6.18;;;742.40;1382.40;;;;;;5096899;28;20466;-63
2021/06/23 05:17:31;;;;;;;26.40;5.05;;;742.60;1356.80;;;;;;5097093;28;20028;-63
2021/06/23 05:19:57;;;;;;;19.85;4.72;;;742.70;1331.20;;;;;;5097221;28;20017;-63
2021/06/23 05:22:23;;;;;;;27.05;5.95;;;742.90;1331.20;;;;;;5096328;28;20052;-63
2021/06/23 05:24:49;;;;;;;20.50;6.15;;;743.00;1305.60;;;;;;5096550;28;20024;-63
2021/06/23 05:27:15;;;;;;;25.63;4.85;;;743.10;1280.00;;;;;;5096501;28;20043;-62
2021/06/23 05:29:42;;;;;;;26.58;5.65;;;743.20;1280.00;;;;;;5096871;28;20024;-63
2021/06/23 05:32:08;;;;;;;24.92;5.47;;;768.00;1280.00;;;;;;5096535;28;20109;-63
2021/06/23 05:34:34;;;;;;;16.30;5.35;;;768.00;1280.00;;;;;;5096412;28;20024;-63
2021/06/23 05:36:59;;;;;;;17.83;4.95;;;768.20;1254.40;;;;;;5094983;28;20086;-63
2021/06/23 05:39:25;;;;;;;18.75;4.28;;;768.30;1254.40;;;;;;5096135;28;20051;-63
2021/06/23 05:41:51;;;;;;;17.55;4.70;;;768.50;1228.80;;;;;;5096244;28;20028;-65
2021/06/23 05:44:18;;;;;;;18.98;5.05;;;768.50;1203.20;;;;;;5095985;28;20089;-63
2021/06/23 05:46:43;;;;;;;24.55;5.75;;;768.70;1203.20;;;;;;5096188;28;20028;-67
2021/06/23 05:49:09;;;;;;;21.98;5.32;;;793.60;1203.20;;;;;;5095899;28;20101;-66
2021/06/23 05:51:35;;;;;;;22.08;5.28;;;793.60;1203.20;;;;;;5095020;28;20020;-64
2021/06/23 05:54:01;;;;;;;19.23;4.53;;;793.80;1177.60;;;;;;5095392;28;20078;-63
2021/06/23 05:56:26;;;;;;;32.70;5.47;;;794.10;1177.60;;;;;;5095318;28;20016;-65
2021/06/23 05:58:52;;;;;;;26.92;5.18;;;794.20;1152.00;;;;;;5095532;28;20106;-65
2021/06/23 06:01:18;;;;;;;20.05;5.13;;;794.30;1152.00;;;;;;5095226;28;20031;-64
2021/06/23 06:03:43;;;;;;;31.63;5.85;;;794.50;1152.00;;;;;;5095283;28;20020;-67
2021/06/23 06:06:09;;;;;;;32.25;5.50;;;819.20;1152.00;;;;;;5095235;28;20125;-63
2021/06/23 06:08:35;;;;;;;26.52;4.75;;;819.40;1126.40;;;;;;5095657;28;20027;-62
2021/06/23 06:11:01;;;;;;;27.17;4.45;;;819.40;1126.40;;;;;;5095786;28;20024;-64
2021/06/23 06:13:28;;;;;;;24.08;5.47;;;819.50;1126.40;;;;;;5095689;28;20028;-66
2021/06/23 06:15:54;;;;;;;28.00;5.60;;;819.70;1126.40;;;;;;5095527;28;20058;-64
2021/06/23 06:18:22;;;;;;;54.30;7.80;;;819.80;1126.40;;;;;;5095083;28;20094;-63
2021/06/23 06:20:48;;;;;;;23.83;5.72;;;820.00;1126.40;;;;;;5095206;28;20020;-64
2021/06/23 06:23:14;;;;;;;27.63;5.60;;;844.80;1100.80;;;;;;5094809;28;20047;-63
2021/06/23 06:25:40;;;;;;;28.88;5.97;;;845.00;1075.20;;;;;;5095101;28;20543;-63
2021/06/23 06:28:05;;;;;;;26.17;5.00;;;845.10;1075.20;;;;;;5095106;28;20065;-63
2021/06/23 06:30:31;;;;;;;21.90;5.55;;;845.30;1024.00;;;;;;5095215;28;20036;-63
2021/06/23 06:32:59;;;;;;;22.60;5.32;;;845.50;1024.00;;;;;;5095323;28;20030;-63
2021/06/23 06:35:25;;;;;;;21.10;4.65;;;845.70;972.80;;;;;;5095134;28;20073;-63
2021/06/23 06:37:52;;;;;;;50.13;5.20;;;870.50;921.60;;;;;;5095240;28;20020;-65
2021/06/23 06:40:18;;;;;;;38.55;5.32;;;870.60;870.40;;;;;;5095199;28;20099;-63
2021/06/23 06:42:43;;;;;;;17.95;4.35;;;870.80;870.40;;;;;;5095060;28;20137;-63
2021/06/23 06:45:10;;;;;;;8.80;3.35;;;870.80;844.80;;;;;;5095075;28;20109;-63
2021/06/23 06:47:36;;;;;;;29.52;3.60;;;871.00;844.80;;;;;;5094321;28;20032;-63
2021/06/23 06:50:03;;;;;;;17.67;3.85;;;871.20;819.20;;;;;;5095063;28;20100;-63
2021/06/23 06:52:28;;;;;;;27.63;4.43;;;871.30;819.20;;;;;;5094799;28;20038;-64
2021/06/23 06:54:54;;;;;;;18.67;3.83;;;896.00;819.20;;;;;;5094368;28;20111;-64
2021/06/23 06:57:20;;;;;;;25.55;3.30;;;896.10;819.20;;;;;;5094963;28;20024;-63
2021/06/23 06:59:45;;;;;;;21.23;4.18;;;896.20;819.20;;;;;;5095249;28;20081;-64
2021/06/23 07:02:11;;;;;;;23.58;3.53;;;896.30;819.20;;;;;;5094804;28;20024;-63
2021/06/23 07:04:37;;;;;;;14.27;3.30;;;896.50;819.20;;;;;;5094776;28;20111;-64
2021/06/23 07:07:03;;;;;;;15.98;3.60;;;896.60;819.20;;;;;;5094586;28;20408;-63
2021/06/23 07:09:29;;;;;;;19.15;4.43;;;896.80;793.60;;;;;;5094636;28;20103;-63
2021/06/23 07:11:55;;;;;;;19.17;3.90;;;896.90;793.60;;;;;;5094636;28;20107;-64
2021/06/23 07:14:21;;;;;;;20.58;3.47;;;921.60;793.60;;;;;;5094656;28;20024;-63
2021/06/23 07:16:47;;;;;;;19.25;3.83;;;921.70;768.00;;;;;;5094311;28;20062;-65
2021/06/23 07:19:14;;;;;;;16.52;3.47;;;921.80;768.00;;;;;;5094394;28;20478;-64
2021/06/23 07:21:43;;;;;;;17.83;3.40;;;922.00;768.00;;;;;;5094497;28;20047;-63
2021/06/23 07:24:09;;;;;;;14.70;3.22;;;922.10;742.40;;;;;;5094255;28;20030;-64
2021/06/23 07:26:35;;;;;;;20.40;3.50;;;922.30;742.40;;;;;;5093564;28;20107;-63
2021/06/23 07:29:06;;;;;;;12.10;3.10;;;922.50;742.40;;;;;;5073983;28;20075;-63
2021/06/23 07:36:50;;;;;;;13.85;2.45;;;947.50;691.20;;;;;;5073905;28;20048;-63
2021/06/23 07:39:17;;;;;;;10.45;3.25;;;947.50;665.60;;;;;;5073905;28;20086;-64
2021/06/23 07:41:46;;;;;;;12.55;3.08;;;947.80;691.20;;;;;;5073871;28;20025;-63
2021/06/23 07:44:14;;;;;;;11.00;2.60;;;948.00;665.60;;;;;;5073758;28;20028;-63
2021/06/23 07:46:48;;;;;;;10.30;2.55;;;972.80;691.20;;;;;;5073751;28;20040;-63
2021/06/23 07:49:15;;;;;;;14.02;2.67;;;972.90;665.60;;;;;;5073896;28;20021;-63
2021/06/23 07:51:59;;;;;;;16.77;3.30;;;973.00;665.60;;;;;;5073733;28;20488;-64
2021/06/23 08:10:38;;;;;;;12.20;3.03;;;998.50;614.40;;;;;;5073743;28;20074;-64
2021/06/23 08:13:05;;;;;;;10.40;2.30;;;998.50;563.20;;;;;;5073317;28;20028;-69
2021/06/23 08:15:35;;;;;;;12.85;2.00;;;998.70;537.60;;;;;;5073601;28;20060;-65
2021/06/23 08:18:01;;;;;;;13.38;2.13;;;998.70;512.00;;;;;;5072344;28;20023;-64
2021/06/23 08:20:28;;;;;;;23.92;2.40;;;998.80;512.00;;;;;;5072295;28;20024;-67
2021/06/23 08:22:55;;;;;;;23.58;5.70;;;998.80;537.60;;;;;;5071788;28;20059;-67
2021/06/23 08:25:21;;;;;;;17.80;2.92;;;998.90;563.20;;;;;;5071782;28;20037;-64
2021/06/23 08:27:48;;;;;;;14.00;2.50;;;998.90;563.20;;;;;;5071799;28;20351;-69
2021/06/23 08:30:15;;;;;;;14.52;2.58;;;998.90;537.60;;;;;;5072047;28;20016;-68
2021/06/23 08:32:41;;;;;;;22.38;2.97;;;998.90;537.60;;;;;;5087452;28;20056;-66
2021/06/23 08:35:09;;;;;;;25.55;3.50;;;999.00;537.60;;;;;;5071631;28;20028;-64
2021/06/23 08:37:36;;;;;;;13.65;3.30;;;999.00;537.60;;;;;;5071385;28;20028;-65
2021/06/23 08:40:04;;;;;;;14.48;3.03;;;999.10;563.20;;;;;;5072137;28;20035;-67
2021/06/23 08:42:30;;;;;;;16.92;3.10;;;1024.00;563.20;;;;;;5071696;28;20493;-63
2021/06/23 08:44:55;;;;;;;13.18;2.83;;;1024.00;563.20;;;;;;5071687;28;20037;-64
2021/06/23 08:47:23;;;;;;;10.80;2.83;;;1024.00;563.20;;;;;;5071562;28;20029;-64
2021/06/23 08:49:49;;;;;;;13.10;2.40;;;1024.00;563.20;;;;;;5069231;28;20394;-63
2021/06/23 08:52:15;;;;;;;10.18;3.22;;;1024.10;563.20;;;;;;5071460;28;20348;-67
2021/06/23 08:54:42;;;;;;;21.40;3.28;;;1024.10;563.20;;;;;;5071720;28;20146;-64
2021/06/23 08:57:08;;;;;;;24.70;3.20;;;1024.20;563.20;;;;;;5068944;28;20024;-65
2021/06/23 08:59:35;;;;;;;27.80;3.75;;;1024.30;563.20;;;;;;5071907;28;20021;-65
2021/06/23 09:02:01;;;;;;;24.77;3.42;;;1024.30;563.20;;;;;;5071217;28;20360;-63
2021/06/23 09:04:28;;;;;;;27.10;3.60;;;1024.30;537.60;;;;;;5066628;28;20060;-68
2021/06/23 09:06:58;;;;;;;15.35;3.15;;;1024.30;537.60;;;;;;5071062;28;20113;-68
2021/06/23 09:09:28;;;;;;;19.02;4.00;;;1024.50;537.60;;;;;;5071404;28;20075;-63
2021/06/23 09:11:59;;;;;;;16.08;3.05;;;1024.60;563.20;;;;;;5073570;28;20595;-68
2021/06/23 09:14:27;;;;;;;16.27;3.42;;;1024.80;563.20;;;;;;5074389;28;20374;-67
2021/06/23 09:17:16;;;;;;;12.65;2.72;;;1049.70;588.80;;;;;;5074993;28;20028;-67
2021/06/23 09:19:43;;;;;;;12.05;2.50;;;1049.60;563.20;;;;;;5074563;28;20024;-69
2021/06/23 09:22:47;;;;;;;13.43;3.08;;;1024.80;537.60;;;;;;5074006;28;20531;-65
2021/06/23 09:25:12;;;;;;;;;;;1049.70;563.20;;;;;;5032646;28;20098;-62
2021/06/23 09:27:56;;;;;;;18.73;3.55;;;1049.70;563.20;;;;;;5032105;28;19988;-62
2021/06/23 09:30:35;;;;;;;21.90;3.40;;;1049.70;563.20;;;;;;5032205;28;20570;-64
2021/06/23 09:33:40;;;;;;;11.73;3.10;;;1049.90;563.20;;;;;;5032350;28;20037;-64
2021/06/23 09:36:12;;;;;;;18.02;3.35;;;1049.90;563.20;;;;;;4954839;28;20035;-64
2021/06/23 09:38:50;;;;;;;17.42;2.95;;;1050.00;563.20;;;;;;4955444;29;20031;-63
2021/06/23 09:41:34;;;;;;;14.10;3.17;;;1050.00;563.20;;;;;;4955290;29;20520;-63
2021/06/23 09:44:05;;;;;;;19.27;3.30;;;1050.10;563.20;;;;;;4955198;29;20548;-63
2021/06/23 09:46:36;;;;;;;15.45;3.60;;;1050.20;563.20;;;;;;4955162;29;20039;-62
2021/06/23 09:49:18;;;;;;;16.30;3.03;;;1050.20;563.20;;;;;;4955416;29;20381;-63
2021/06/23 09:51:52;;;;;;;14.23;3.70;;;1050.30;563.20;;;;;;4954839;29;20058;-63
2021/06/23 09:54:23;;;;;;;10.40;3.25;;;1050.30;563.20;;;;;;4955246;29;20485;-64
2021/06/23 09:56:50;;;;;;;23.70;3.67;;;1075.20;588.80;;;;;;4955174;29;20049;-63
2021/06/23 09:59:26;;;;;;;16.40;3.83;;;1050.50;588.80;;;;;;4954890;29;20027;-64
2021/06/23 10:01:51;;;;;;;22.77;5.15;;;1075.20;563.20;;;;;;4971522;28;20034;-64
2021/06/23 10:04:17;;;;;;;25.85;4.95;;;1050.50;588.80;;;;;;4993737;28;20451;-63
2021/06/23 10:06:47;;;;;;;32.70;5.63;;;1050.50;588.80;;;;;;5021005;28;20072;-63
2021/06/23 10:09:25;;;;;;;23.33;4.65;;;1075.30;563.20;;;;;;5055085;28;20020;-63
2021/06/23 10:12:02;;;;;;;20.52;3.67;;;1050.30;588.80;;;;;;5054963;28;20061;-63
2021/06/23 10:14:30;;;;;;;26.00;4.82;;;1050.30;588.80;;;;;;5055015;28;20025;-64
2021/06/23 10:16:59;;;;;;;26.70;4.22;;;1075.20;588.80;;;;;;5054855;28;20021;-63
2021/06/23 10:19:26;;;;;;;34.45;4.90;;;1075.30;588.80;;;;;;5054906;28;20036;-62
2021/06/23 10:21:54;;;;;;;24.40;4.07;;;1075.40;588.80;;;;;;5054472;28;20053;-64
2021/06/23 10:24:21;;;;;;;18.38;4.55;;;1075.40;588.80;;;;;;5054201;28;20025;-64
2021/06/23 10:26:53;;;;;;;13.25;4.32;;;1075.40;588.80;;;;;;5054647;28;20047;-68
2021/06/23 10:29:31;;;;;;;25.10;4.35;;;1075.50;588.80;;;;;;5054639;28;20025;-69
2021/06/23 10:31:58;;;;;;;26.60;4.85;;;1075.50;588.80;;;;;;5054556;28;20479;-65
2021/06/23 10:34:26;;;;;;;42.58;5.40;;;1075.50;563.20;;;;;;5054637;28;20120;-69
2021/06/23 10:36:53;;;;;;;26.50;4.10;;;1075.50;563.20;;;;;;5054469;28;20037;-64
2021/06/23 10:39:20;;;;;;;36.20;4.47;;;1075.50;563.20;;;;;;5054373;28;20025;-67
2021/06/23 10:41:52;;;;;;;37.80;5.95;;;1075.50;563.20;;;;;;5054252;28;20033;-69
2021/06/23 10:44:22;;;;;;;33.17;4.32;;;1075.50;563.20;;;;;;5054359;28;20022;-67
2021/06/23 10:46:54;;;;;;;28.40;5.35;;;1075.60;563.20;;;;;;5067928;28;20036;-67
2021/06/23 10:49:42;;;;;;;31.33;5.13;;;1075.50;563.20;;;;;;5072891;28;20023;-67
2021/06/23 10:52:19;;;;;;;33.10;4.63;;;1075.60;537.60;;;;;;5072226;28;20077;-64
2021/06/23 10:54:54;;;;;;;28.33;4.18;;;1075.60;537.60;;;;;;5072832;28;20024;-64
2021/06/23 10:57:33;;;;;;;23.98;3.95;;;1075.60;563.20;;;;;;5070982;28;20095;-63
2021/06/23 11:00:00;;;;;;;37.35;4.90;;;1075.70;537.60;;;;;;5071304;28;20035;-68
2021/06/23 11:02:28;;;;;;;23.75;5.32;;;1075.60;563.20;;;;;;5072404;28;20048;-68
2021/06/23 11:05:03;;;;;;;21.58;3.70;;;1075.70;537.60;;;;;;5072224;28;20364;-68
2021/06/23 11:07:38;;;;;;;25.00;5.15;;;1075.80;537.60;;;;;;5072327;28;20024;-67
2021/06/23 11:10:16;;;;;;;27.67;4.57;;;1075.80;537.60;;;;;;5071671;28;20072;-64
2021/06/23 11:12:58;;;;;;;30.52;4.90;;;1075.80;563.20;;;;;;5070660;28;20429;-64
2021/06/23 11:15:33;;;;;;;20.25;4.65;;;1075.80;537.60;;;;;;5072095;28;20085;-64
2021/06/23 11:18:34;;;;;;;25.90;4.15;;;1075.60;537.60;;;;;;5072849;28;20067;-67
2021/06/23 11:21:21;;;;;;;19.00;4.45;;;1075.70;537.60;;;;;;5073530;28;20589;-66
2021/06/23 11:23:50;;;;;;;18.75;4.03;;;1075.80;512.00;;;;;;5073970;28;20035;-66
2021/06/23 11:26:21;;;;;;;13.63;3.83;;;1075.70;537.60;;;;;;5073148;28;20036;-69
2021/06/23 11:28:52;;;;;;;22.77;4.50;;;1075.70;537.60;;;;;;5072568;28;20107;-68
2021/06/23 11:31:20;;;;;;;19.25;4.72;;;1075.80;537.60;;;;;;5072942;28;20362;-64
2021/06/23 11:33:48;;;;;;;19.23;4.35;;;1075.80;537.60;;;;;;5073699;28;20466;-65
2021/06/23 11:36:21;;;;;;;21.60;3.83;;;1076.00;537.60;;;;;;5074038;28;20381;-70
2021/06/23 11:38:48;;;;;;;22.25;3.42;;;1100.80;537.60;;;;;;5073947;28;20052;-69
2021/06/23 11:41:15;;;;;;;26.17;4.20;;;1076.00;512.00;;;;;;5072735;28;20377;-65
2021/06/23 11:43:41;;;;;;;18.25;3.90;;;1076.00;512.00;;;;;;5069970;28;20017;-63
2021/06/23 11:46:07;;;;;;;21.27;4.18;;;1100.80;537.60;;;;;;5072298;28;20481;-69
2021/06/23 11:48:36;;;;;;;20.20;4.40;;;1075.80;512.00;;;;;;5072397;28;20024;-63
2021/06/23 11:51:02;;;;;;;19.92;4.22;;;1075.80;512.00;;;;;;5070105;28;20025;-64
2021/06/23 11:53:28;;;;;;;18.88;4.03;;;1076.00;512.00;;;;;;5071197;28;20075;-67
2021/06/23 11:55:53;;;;;;;25.45;4.65;;;1100.80;563.20;;;;;;5072633;28;20382;-69
2021/06/23 11:58:20;;;;;;;47.58;5.50;;;1100.80;563.20;;;;;;5072192;28;20416;-64
2021/06/23 12:00:46;;;;;;;27.88;4.93;;;1076.00;537.60;;;;;;5072369;28;20028;-68
2021/06/23 12:03:17;;;;;;;47.03;6.45;;;1076.00;537.60;;;;;;5072231;28;20027;-64
2021/06/23 12:05:44;;;;;;;33.78;5.05;;;1100.80;537.60;;;;;;5070287;28;20107;-70
2021/06/23 12:08:10;;;;;;;21.95;4.22;;;1076.00;537.60;;;;;;5072049;28;20435;-67
2021/06/23 12:10:38;;;;;;;23.42;4.50;;;1075.70;537.60;;;;;;5072395;28;20024;-64
2021/06/23 12:13:04;;;;;;;22.83;4.57;;;1075.90;537.60;;;;;;5072272;28;20025;-63
2021/06/23 12:15:31;;;;;;;19.52;4.53;;;1075.80;537.60;;;;;;5072181;28;20466;-63
2021/06/23 12:18:03;;;;;;;16.17;4.32;;;1076.00;537.60;;;;;;5072995;28;20040;-63
2021/06/23 12:20:30;;;;;;;18.55;4.03;;;1076.00;512.00;;;;;;5073115;28;20382;-63
2021/06/23 12:23:02;;;;;;;17.40;3.60;;;1076.00;486.40;;;;;;5073099;28;20219;-63
2021/06/23 12:25:33;;;;;;;24.60;4.32;;;1075.80;537.60;;;;;;5073316;28;20359;-62
2021/06/23 12:28:02;;;;;;;26.73;4.75;;;1075.90;537.60;;;;;;5073404;28;20107;-63
2021/06/23 12:30:28;;;;;;;19.80;5.03;;;1075.70;537.60;;;;;;5073080;28;20017;-62
2021/06/23 12:32:58;;;;;;;23.25;4.65;;;1075.70;537.60;;;;;;5072176;28;20020;-63
2021/06/23 12:35:27;;;;;;;18.83;4.13;;;1075.80;537.60;;;;;;5071813;28;20115;-62